createdAt,value
2018-07-03T00:00:39.446Z,0.00
2018-07-03T00:01:39.474Z,0.00
2018-07-03T00:02:39.498Z,0.00
2018-07-03T00:03:39.521Z,0.00
2018-07-03T00:04:39.547Z,0.00
2018-07-03T00:05:39.600Z,0.00
2018-07-03T00:06:39.599Z,0.00
2018-07-03T00:07:39.628Z,0.00
2018-07-03T00:08:39.652Z,0.00
2018-07-03T00:09:39.678Z,0.00
2018-07-03T00:10:39.703Z,0.00
2018-07-03T00:11:39.731Z,0.00
2018-07-03T00:12:39.755Z,0.00
2018-07-03T00:13:39.779Z,0.00
2018-07-03T00:14:39.807Z,0.00
2018-07-03T00:15:39.828Z,0.00
2018-07-03T00:16:39.862Z,0.00
2018-07-03T00:17:39.880Z,0.00
2018-07-03T00:18:39.918Z,0.00
2018-07-03T00:19:39.945Z,0.00
2018-07-03T00:20:39.965Z,0.00
2018-07-03T00:21:39.986Z,0.00
2018-07-03T00:22:40.016Z,0.00
2018-07-03T00:23:40.043Z,0.00
2018-07-03T00:24:40.066Z,0.00
2018-07-03T00:25:40.090Z,0.00
2018-07-03T00:26:40.117Z,0.00
2018-07-03T00:27:40.144Z,0.00
2018-07-03T00:28:40.165Z,0.00
2018-07-03T00:29:40.190Z,0.00
2018-07-03T00:30:40.223Z,0.00
2018-07-03T00:31:40.241Z,0.00
2018-07-03T00:32:40.273Z,0.00
2018-07-03T00:33:40.291Z,0.00
2018-07-03T00:34:40.319Z,0.00
2018-07-03T00:35:40.345Z,0.00
2018-07-03T00:36:40.375Z,0.00
2018-07-03T00:37:40.399Z,0.00
2018-07-03T00:38:40.421Z,0.00
2018-07-03T00:39:40.445Z,0.00
2018-07-03T00:40:40.477Z,0.00
2018-07-03T00:41:40.497Z,0.00
2018-07-03T00:42:40.529Z,0.00
2018-07-03T00:43:40.554Z,0.00
2018-07-03T00:44:40.576Z,0.00
2018-07-03T00:45:40.608Z,0.00
2018-07-03T00:46:40.625Z,0.00
2018-07-03T00:47:40.647Z,0.00
2018-07-03T00:48:40.679Z,0.00
2018-07-03T00:49:40.700Z,0.00
2018-07-03T00:50:40.726Z,0.00
2018-07-03T00:51:40.757Z,0.00
2018-07-03T00:52:40.780Z,0.00
2018-07-03T00:53:40.806Z,0.00
2018-07-03T00:54:40.837Z,0.00
2018-07-03T00:55:40.859Z,0.00
2018-07-03T00:56:40.881Z,0.00
2018-07-03T00:57:40.911Z,0.00
2018-07-03T00:58:40.941Z,0.00
2018-07-03T00:59:40.963Z,0.00
2018-07-03T01:00:40.986Z,0.00
2018-07-03T01:01:41.013Z,0.00
2018-07-03T01:02:41.039Z,0.00
2018-07-03T01:03:41.065Z,0.00
2018-07-03T01:04:41.079Z,0.00
2018-07-03T01:05:41.108Z,0.00
2018-07-03T01:06:41.137Z,0.00
2018-07-03T01:07:41.161Z,0.00
2018-07-03T01:08:41.187Z,0.00
2018-07-03T01:09:41.219Z,0.00
2018-07-03T01:10:41.261Z,0.00
2018-07-03T01:11:41.265Z,0.00
2018-07-03T01:12:41.291Z,0.00
2018-07-03T01:13:41.315Z,0.00
2018-07-03T01:14:41.339Z,0.00
2018-07-03T01:15:41.367Z,0.00
2018-07-03T01:16:41.392Z,0.00
2018-07-03T01:17:41.417Z,0.00
2018-07-03T01:18:41.439Z,0.00
2018-07-03T01:19:41.467Z,0.00
2018-07-03T01:20:41.499Z,0.00
2018-07-03T01:21:41.518Z,0.00
2018-07-03T01:22:41.548Z,0.00
2018-07-03T01:23:41.568Z,0.00
2018-07-03T01:24:41.599Z,0.00
2018-07-03T01:25:41.615Z,0.00
2018-07-03T01:26:41.645Z,0.00
2018-07-03T01:27:41.671Z,0.00
2018-07-03T01:28:41.701Z,0.00
2018-07-03T01:29:41.721Z,0.00
2018-07-03T01:30:41.745Z,0.00
2018-07-03T01:31:41.775Z,0.00
2018-07-03T01:32:41.801Z,0.00
2018-07-03T01:33:41.821Z,0.00
2018-07-03T01:34:41.847Z,0.00
2018-07-03T01:35:41.873Z,0.00
2018-07-03T01:36:41.901Z,0.00
2018-07-03T01:37:41.933Z,0.00
2018-07-03T01:38:41.955Z,0.00
2018-07-03T01:39:41.977Z,0.00
2018-07-03T01:40:42.002Z,0.00
2018-07-03T01:41:42.026Z,0.00
2018-07-03T01:42:42.055Z,0.00
2018-07-03T01:43:42.075Z,0.00
2018-07-03T01:44:42.099Z,0.00
2018-07-03T01:45:42.146Z,0.00
2018-07-03T01:46:42.151Z,0.00
2018-07-03T01:47:42.177Z,0.00
2018-07-03T01:48:42.201Z,0.00
2018-07-03T01:49:42.230Z,0.00
2018-07-03T01:50:42.258Z,0.00
2018-07-03T01:51:42.279Z,0.00
2018-07-03T01:52:42.305Z,0.00
2018-07-03T01:53:42.331Z,0.00
2018-07-03T01:54:42.351Z,0.00
2018-07-03T01:55:42.375Z,0.00
2018-07-03T01:56:42.405Z,0.00
2018-07-03T01:57:42.433Z,0.00
2018-07-03T01:58:42.453Z,0.00
2018-07-03T01:59:42.477Z,0.00
2018-07-03T02:00:42.507Z,0.00
2018-07-03T02:01:42.529Z,0.00
2018-07-03T02:02:42.557Z,0.00
2018-07-03T02:03:42.577Z,0.00
2018-07-03T02:04:42.607Z,0.00
2018-07-03T02:05:42.635Z,0.00
2018-07-03T02:06:42.653Z,0.00
2018-07-03T02:07:42.681Z,0.00
2018-07-03T02:08:42.703Z,0.00
2018-07-03T02:09:42.730Z,0.00
2018-07-03T02:10:42.756Z,0.00
2018-07-03T02:11:42.781Z,0.00
2018-07-03T02:12:42.807Z,0.00
2018-07-03T02:13:42.829Z,0.00
2018-07-03T02:14:42.855Z,0.00
2018-07-03T02:15:42.878Z,0.00
2018-07-03T02:16:42.911Z,0.00
2018-07-03T02:17:42.939Z,0.00
2018-07-03T02:18:42.954Z,0.00
2018-07-03T02:19:42.984Z,0.00
2018-07-03T02:20:43.005Z,0.00
2018-07-03T02:21:43.031Z,0.00
2018-07-03T02:22:43.057Z,0.00
2018-07-03T02:23:43.085Z,0.00
2018-07-03T02:24:43.103Z,0.00
2018-07-03T02:25:43.133Z,0.00
2018-07-03T02:26:43.157Z,0.00
2018-07-03T02:27:43.183Z,0.00
2018-07-03T02:28:43.202Z,0.00
2018-07-03T02:29:43.233Z,0.00
2018-07-03T02:30:43.254Z,0.00
2018-07-03T02:31:43.281Z,0.00
2018-07-03T02:32:43.305Z,0.00
2018-07-03T02:33:43.334Z,0.00
2018-07-03T02:34:43.359Z,0.00
2018-07-03T02:35:43.381Z,0.00
2018-07-03T02:36:43.401Z,0.00
2018-07-03T02:37:43.430Z,0.00
2018-07-03T02:38:43.454Z,0.00
2018-07-03T02:39:43.487Z,0.00
2018-07-03T02:40:43.507Z,0.00
2018-07-03T02:41:43.534Z,0.00
2018-07-03T02:42:43.556Z,0.00
2018-07-03T02:43:43.579Z,5.63
2018-07-03T02:44:43.608Z,5.63
2018-07-03T02:45:43.632Z,5.63
2018-07-03T02:46:43.652Z,5.63
2018-07-03T02:47:43.679Z,5.63
2018-07-03T02:48:43.707Z,5.63
2018-07-03T02:49:43.729Z,5.63
2018-07-03T02:50:43.754Z,5.63
2018-07-03T02:51:43.779Z,5.63
2018-07-03T02:52:43.799Z,11.25
2018-07-03T02:53:43.827Z,11.25
2018-07-03T02:54:43.853Z,11.25
2018-07-03T02:55:43.872Z,11.25
2018-07-03T02:56:43.902Z,11.25
2018-07-03T02:57:43.923Z,16.88
2018-07-03T02:58:43.955Z,16.88
2018-07-03T02:59:43.976Z,16.88
2018-07-03T03:00:43.999Z,16.88
2018-07-03T03:01:44.032Z,16.88
2018-07-03T03:02:44.056Z,22.50
2018-07-03T03:03:44.076Z,22.50
2018-07-03T03:04:44.103Z,22.50
2018-07-03T03:05:44.123Z,22.50
2018-07-03T03:06:44.155Z,28.13
2018-07-03T03:07:44.173Z,28.13
2018-07-03T03:08:44.199Z,28.13
2018-07-03T03:09:44.231Z,28.13
2018-07-03T03:10:44.250Z,33.75
2018-07-03T03:11:44.274Z,33.75
2018-07-03T03:12:44.299Z,33.75
2018-07-03T03:13:44.325Z,39.38
2018-07-03T03:14:44.345Z,50.63
2018-07-03T03:15:44.369Z,50.63
2018-07-03T03:16:44.441Z,50.63
2018-07-03T03:17:44.416Z,45.00
2018-07-03T03:18:44.449Z,45.00
2018-07-03T03:19:44.466Z,45.00
2018-07-03T03:20:44.492Z,50.63
2018-07-03T03:21:44.525Z,50.63
2018-07-03T03:22:44.542Z,50.63
2018-07-03T03:23:44.566Z,50.63
2018-07-03T03:24:44.591Z,56.25
2018-07-03T03:25:44.621Z,56.25
2018-07-03T03:26:44.642Z,56.25
2018-07-03T03:27:44.669Z,61.88
2018-07-03T03:28:44.691Z,61.88
2018-07-03T03:29:44.715Z,61.88
2018-07-03T03:30:44.744Z,67.50
2018-07-03T03:31:44.769Z,67.50
2018-07-03T03:32:44.786Z,67.50
2018-07-03T03:33:44.815Z,67.50
2018-07-03T03:34:44.842Z,73.13
2018-07-03T03:35:44.867Z,73.13
2018-07-03T03:36:44.896Z,73.13
2018-07-03T03:37:44.913Z,78.75
2018-07-03T03:38:44.941Z,78.75
2018-07-03T03:39:44.961Z,78.75
2018-07-03T03:40:44.989Z,78.75
2018-07-03T03:41:45.013Z,84.38
2018-07-03T03:42:45.042Z,84.38
2018-07-03T03:43:45.066Z,84.38
2018-07-03T03:44:45.088Z,84.38
2018-07-03T03:45:45.114Z,90.00
2018-07-03T03:46:45.140Z,90.00
2018-07-03T03:47:45.162Z,90.00
2018-07-03T03:48:45.187Z,90.00
2018-07-03T03:49:45.206Z,95.63
2018-07-03T03:50:45.235Z,95.63
2018-07-03T03:51:45.256Z,95.63
2018-07-03T03:52:45.285Z,101.25
2018-07-03T03:53:45.312Z,101.25
2018-07-03T03:54:45.339Z,101.25
2018-07-03T03:55:45.357Z,101.25
2018-07-03T03:56:45.381Z,101.25
2018-07-03T03:57:45.405Z,106.88
2018-07-03T03:58:45.432Z,106.88
2018-07-03T03:59:45.455Z,106.88
2018-07-03T04:00:45.516Z,106.88
2018-07-03T04:01:45.511Z,112.50
2018-07-03T04:02:45.532Z,112.50
2018-07-03T04:03:45.557Z,112.50
2018-07-03T04:04:45.582Z,112.50
2018-07-03T04:05:45.605Z,112.50
2018-07-03T04:06:45.631Z,118.13
2018-07-03T04:07:45.651Z,118.13
2018-07-03T04:08:45.680Z,118.13
2018-07-03T04:09:45.707Z,118.13
2018-07-03T04:10:45.732Z,123.75
2018-07-03T04:11:45.754Z,123.75
2018-07-03T04:12:45.777Z,123.75
2018-07-03T04:13:45.799Z,123.75
2018-07-03T04:14:45.826Z,123.75
2018-07-03T04:15:45.848Z,123.75
2018-07-03T04:16:45.878Z,129.38
2018-07-03T04:17:45.902Z,129.38
2018-07-03T04:18:45.925Z,129.38
2018-07-03T04:19:45.948Z,129.38
2018-07-03T04:20:45.975Z,129.38
2018-07-03T04:21:46.000Z,135.00
2018-07-03T04:22:46.027Z,135.00
2018-07-03T04:23:46.045Z,135.00
2018-07-03T04:24:46.070Z,135.00
2018-07-03T04:25:46.099Z,135.00
2018-07-03T04:26:46.121Z,135.00
2018-07-03T04:27:46.143Z,140.63
2018-07-03T04:28:46.170Z,140.63
2018-07-03T04:29:46.195Z,140.63
2018-07-03T04:30:46.219Z,140.63
2018-07-03T04:31:46.244Z,140.63
2018-07-03T04:33:46.295Z,146.25
2018-07-03T04:34:46.318Z,146.25
2018-07-03T04:35:46.337Z,146.25
2018-07-03T04:36:46.367Z,146.25
2018-07-03T04:37:46.394Z,146.25
2018-07-03T04:38:46.421Z,146.25
2018-07-03T04:39:46.439Z,146.25
2018-07-03T04:40:46.462Z,151.88
2018-07-03T04:41:46.503Z,151.88
2018-07-03T04:42:46.517Z,151.88
2018-07-03T04:43:46.541Z,151.88
2018-07-03T04:44:46.572Z,151.88
2018-07-03T04:45:46.588Z,151.88
2018-07-03T04:46:46.668Z,151.88
2018-07-03T04:47:46.644Z,157.50
2018-07-03T04:48:46.670Z,157.50
2018-07-03T04:49:46.687Z,157.50
2018-07-03T04:50:46.720Z,157.50
2018-07-03T04:51:46.739Z,157.50
2018-07-03T04:52:46.770Z,157.50
2018-07-03T04:53:46.799Z,157.50
2018-07-03T04:54:46.821Z,163.13
2018-07-03T04:55:46.847Z,163.13
2018-07-03T04:56:46.874Z,163.13
2018-07-03T04:57:46.903Z,163.13
2018-07-03T04:58:46.924Z,163.13
2018-07-03T04:59:46.950Z,157.50
2018-07-03T05:00:46.977Z,163.13
2018-07-03T05:01:47.001Z,163.13
2018-07-03T05:02:47.025Z,168.75
2018-07-03T05:03:47.055Z,168.75
2018-07-03T05:04:47.073Z,168.75
2018-07-03T05:05:47.101Z,168.75
2018-07-03T05:06:47.132Z,168.75
2018-07-03T05:07:47.148Z,168.75
2018-07-03T05:08:47.179Z,168.75
2018-07-03T05:09:47.203Z,168.75
2018-07-03T05:10:47.230Z,174.38
2018-07-03T05:11:47.258Z,174.38
2018-07-03T05:12:47.279Z,174.38
2018-07-03T05:13:47.301Z,174.38
2018-07-03T05:14:47.331Z,174.38
2018-07-03T05:15:47.357Z,174.38
2018-07-03T05:16:47.383Z,174.38
2018-07-03T05:17:47.409Z,174.38
2018-07-03T05:18:47.441Z,174.38
2018-07-03T05:19:47.457Z,180.00
2018-07-03T05:20:47.497Z,180.00
2018-07-03T05:21:47.517Z,180.00
2018-07-03T05:22:47.537Z,180.00
2018-07-03T05:23:47.563Z,180.00
2018-07-03T05:24:47.589Z,180.00
2018-07-03T05:25:47.617Z,180.00
2018-07-03T05:26:47.638Z,180.00
2018-07-03T05:27:47.666Z,180.00
2018-07-03T05:28:47.696Z,185.63
2018-07-03T05:29:47.718Z,185.63
2018-07-03T05:30:47.745Z,185.63
2018-07-03T05:31:47.821Z,185.63
2018-07-03T05:32:47.798Z,185.63
2018-07-03T05:33:47.815Z,185.63
2018-07-03T05:34:47.844Z,185.63
2018-07-03T05:35:47.876Z,185.63
2018-07-03T05:36:47.898Z,185.63
2018-07-03T05:37:47.927Z,191.25
2018-07-03T05:38:47.950Z,185.63
2018-07-03T05:39:48.002Z,185.63
2018-07-03T05:40:48.004Z,185.63
2018-07-03T05:41:48.023Z,185.63
2018-07-03T05:42:48.087Z,185.63
2018-07-03T05:43:48.076Z,185.63
2018-07-03T05:44:48.107Z,185.63
2018-07-03T05:45:48.136Z,185.63
2018-07-03T05:46:48.161Z,191.25
2018-07-03T05:47:48.182Z,191.25
2018-07-03T05:48:48.209Z,191.25
2018-07-03T05:49:48.236Z,191.25
2018-07-03T05:50:48.405Z,196.88
2018-07-03T05:51:48.356Z,191.25
2018-07-03T05:52:48.314Z,191.25
2018-07-03T05:53:48.336Z,191.25
2018-07-03T05:54:48.362Z,191.25
2018-07-03T05:55:48.390Z,191.25
2018-07-03T05:56:48.418Z,196.88
2018-07-03T05:57:48.443Z,196.88
2018-07-03T05:58:48.469Z,196.88
2018-07-03T05:59:48.497Z,196.88
2018-07-03T06:00:48.516Z,196.88
2018-07-03T06:01:48.537Z,196.88
2018-07-03T06:02:48.572Z,196.88
2018-07-03T06:03:48.642Z,196.88
2018-07-03T06:04:48.627Z,202.50
2018-07-03T06:05:48.646Z,202.50
2018-07-03T06:06:48.672Z,202.50
2018-07-03T06:07:48.701Z,202.50
2018-07-03T06:08:48.726Z,202.50
2018-07-03T06:09:48.752Z,202.50
2018-07-03T06:10:48.776Z,202.50
2018-07-03T06:11:48.800Z,202.50
2018-07-03T06:12:48.871Z,202.50
2018-07-03T06:13:48.855Z,208.13
2018-07-03T06:14:48.956Z,208.13
2018-07-03T06:15:48.906Z,208.13
2018-07-03T06:16:48.952Z,208.13
2018-07-03T06:17:48.960Z,208.13
2018-07-03T06:18:48.986Z,208.13
2018-07-03T06:19:49.011Z,208.13
2018-07-03T06:20:49.038Z,208.13
2018-07-03T06:21:49.066Z,208.13
2018-07-03T06:22:49.145Z,208.13
2018-07-03T06:23:49.114Z,213.75
2018-07-03T06:24:49.150Z,208.13
2018-07-03T06:25:49.174Z,213.75
2018-07-03T06:26:49.199Z,213.75
2018-07-03T06:27:49.297Z,213.75
2018-07-03T06:28:49.318Z,213.75
2018-07-03T06:29:49.273Z,213.75
2018-07-03T06:30:49.300Z,208.13
2018-07-03T06:31:49.329Z,213.75
2018-07-03T06:32:49.348Z,213.75
2018-07-03T06:33:49.375Z,213.75
2018-07-03T06:34:49.402Z,213.75
2018-07-03T06:35:49.426Z,219.38
2018-07-03T06:36:49.458Z,213.75
2018-07-03T06:37:49.479Z,213.75
2018-07-03T06:38:49.508Z,219.38
2018-07-03T06:39:49.557Z,219.38
2018-07-03T06:40:49.561Z,219.38
2018-07-03T06:41:49.592Z,219.38
2018-07-03T06:42:49.613Z,219.38
2018-07-03T06:43:49.641Z,219.38
2018-07-03T06:44:49.701Z,219.38
2018-07-03T06:45:49.688Z,219.38
2018-07-03T06:46:49.735Z,219.38
2018-07-03T06:47:49.744Z,219.38
2018-07-03T06:48:49.769Z,219.38
2018-07-03T06:49:49.794Z,225.00
2018-07-03T06:50:49.819Z,225.00
2018-07-03T06:51:49.899Z,219.38
2018-07-03T06:52:49.882Z,219.38
2018-07-03T06:53:49.902Z,219.38
2018-07-03T06:54:49.931Z,219.38
2018-07-03T06:55:49.951Z,219.38
2018-07-03T06:56:49.984Z,219.38
2018-07-03T06:57:50.032Z,225.00
2018-07-03T06:58:50.032Z,219.38
2018-07-03T06:59:50.061Z,219.38
2018-07-03T07:00:50.087Z,225.00
2018-07-03T07:01:50.110Z,219.38
2018-07-03T07:02:50.140Z,219.38
2018-07-03T07:03:50.164Z,225.00
2018-07-03T07:04:50.187Z,225.00
2018-07-03T07:05:50.221Z,219.38
2018-07-03T07:06:50.243Z,225.00
2018-07-03T07:07:50.269Z,225.00
2018-07-03T07:08:50.512Z,219.38
2018-07-03T07:09:50.324Z,219.38
2018-07-03T07:10:50.350Z,219.38
2018-07-03T07:11:50.378Z,219.38
2018-07-03T07:12:50.398Z,219.38
2018-07-03T07:13:50.429Z,219.38
2018-07-03T07:14:50.454Z,219.38
2018-07-03T07:21:50.641Z,219.38
2018-07-03T07:22:50.664Z,219.38
2018-07-03T07:23:50.693Z,225.00
2018-07-03T07:24:53.403Z,219.38
2018-07-03T07:25:50.775Z,230.63
2018-07-03T07:26:50.770Z,225.00
2018-07-03T07:27:50.797Z,225.00
2018-07-03T07:28:50.822Z,225.00
2018-07-03T07:29:50.859Z,225.00
2018-07-03T07:30:50.878Z,225.00
2018-07-03T07:31:50.905Z,225.00
2018-07-03T07:32:50.931Z,230.63
2018-07-03T07:33:50.958Z,225.00
2018-07-03T07:34:50.984Z,225.00
2018-07-03T07:35:51.027Z,225.00
2018-07-03T07:36:51.034Z,225.00
2018-07-03T07:37:51.064Z,225.00
2018-07-03T07:38:51.103Z,225.00
2018-07-03T07:39:51.144Z,225.00
2018-07-03T07:40:51.141Z,225.00
2018-07-03T07:41:51.166Z,225.00
2018-07-03T07:42:51.204Z,225.00
2018-07-03T07:43:51.222Z,225.00
2018-07-03T07:44:51.252Z,225.00
2018-07-03T07:45:51.879Z,225.00
2018-07-03T07:46:51.304Z,225.00
2018-07-03T07:47:51.344Z,225.00
2018-07-03T07:48:51.353Z,225.00
2018-07-03T07:49:51.381Z,230.63
2018-07-03T07:50:51.412Z,230.63
2018-07-03T07:51:51.432Z,230.63
2018-07-03T07:52:51.464Z,230.63
2018-07-03T07:53:54.713Z,230.63
2018-07-03T07:54:51.563Z,230.63
2018-07-03T07:55:51.537Z,230.63
2018-07-03T07:56:51.590Z,230.63
2018-07-03T07:57:51.589Z,225.00
2018-07-03T07:58:51.622Z,236.25
2018-07-03T07:59:51.643Z,230.63
2018-07-03T08:00:51.672Z,230.63
2018-07-03T08:01:51.697Z,230.63
2018-07-03T08:02:51.928Z,230.63
2018-07-03T08:03:51.744Z,230.63
2018-07-03T08:04:51.781Z,230.63
2018-07-03T08:05:51.801Z,230.63
2018-07-03T08:06:51.831Z,230.63
2018-07-03T08:07:51.854Z,230.63
2018-07-03T08:08:51.887Z,236.25
2018-07-03T08:09:51.913Z,236.25
2018-07-03T08:10:51.935Z,236.25
2018-07-03T08:11:51.960Z,236.25
2018-07-03T08:12:51.988Z,236.25
2018-07-03T08:13:52.023Z,241.88
2018-07-03T08:14:52.045Z,241.88
2018-07-03T08:15:52.067Z,247.50
2018-07-03T08:16:52.097Z,253.13
2018-07-03T08:17:52.119Z,241.88
2018-07-03T08:18:52.152Z,241.88
2018-07-03T08:19:52.174Z,241.88
2018-07-03T08:20:52.199Z,247.50
2018-07-03T08:21:52.229Z,247.50
2018-07-03T08:22:52.256Z,247.50
2018-07-03T08:23:52.281Z,253.13
2018-07-03T08:24:52.307Z,253.13
2018-07-03T08:25:52.343Z,258.75
2018-07-03T08:26:52.363Z,258.75
2018-07-03T08:27:52.391Z,264.38
2018-07-03T08:28:52.419Z,270.00
2018-07-03T08:29:52.444Z,270.00
2018-07-03T08:30:52.466Z,281.25
2018-07-03T08:31:52.499Z,281.25
2018-07-03T08:32:52.518Z,286.88
2018-07-03T08:33:52.553Z,292.50
2018-07-03T08:34:52.573Z,298.13
2018-07-03T08:35:52.601Z,298.13
2018-07-03T08:36:52.627Z,303.75
2018-07-03T08:37:52.666Z,309.38
2018-07-03T08:38:52.679Z,315.00
2018-07-03T08:39:52.709Z,320.63
2018-07-03T08:40:52.735Z,320.63
2018-07-03T08:41:52.767Z,326.25
2018-07-03T08:42:52.829Z,331.88
2018-07-03T08:43:52.819Z,337.50
2018-07-03T08:44:52.841Z,343.13
2018-07-03T08:45:52.869Z,348.75
2018-07-03T08:46:52.900Z,354.38
2018-07-03T08:47:52.919Z,360.00
2018-07-03T08:48:52.949Z,365.63
2018-07-03T08:49:52.977Z,376.88
2018-07-03T08:50:53.003Z,382.50
2018-07-03T08:51:53.113Z,388.13
2018-07-03T08:52:53.057Z,393.75
2018-07-03T08:53:53.081Z,399.38
2018-07-03T08:54:53.111Z,416.25
2018-07-03T08:55:53.132Z,416.25
2018-07-03T08:56:53.165Z,416.25
2018-07-03T08:57:53.193Z,427.50
2018-07-03T08:58:53.219Z,427.50
2018-07-03T08:59:53.242Z,444.38
2018-07-03T09:00:53.327Z,444.38
2018-07-03T09:01:53.299Z,444.38
2018-07-03T09:02:53.329Z,450.00
2018-07-03T09:03:53.363Z,461.25
2018-07-03T09:04:53.379Z,466.88
2018-07-03T09:05:53.408Z,466.88
2018-07-03T09:06:53.441Z,472.50
2018-07-03T09:07:53.467Z,478.13
2018-07-03T09:08:53.488Z,483.75
2018-07-03T09:09:53.523Z,489.38
2018-07-03T09:10:53.543Z,500.63
2018-07-03T09:11:53.563Z,500.63
2018-07-03T09:12:53.599Z,500.63
2018-07-03T09:13:53.626Z,500.63
2018-07-03T09:14:53.653Z,500.63
2018-07-03T09:15:53.683Z,506.25
2018-07-03T09:16:53.709Z,500.63
2018-07-03T09:17:53.806Z,506.25
2018-07-03T09:18:53.765Z,511.88
2018-07-03T09:19:53.789Z,517.50
2018-07-03T09:20:53.811Z,517.50
2018-07-03T09:21:53.843Z,523.13
2018-07-03T09:22:53.877Z,534.38
2018-07-03T09:23:53.902Z,540.00
2018-07-03T09:24:53.930Z,540.00
2018-07-03T09:25:53.965Z,562.50
2018-07-03T09:26:53.984Z,556.88
2018-07-03T09:27:54.009Z,568.13
2018-07-03T09:28:54.039Z,562.50
2018-07-03T09:29:54.063Z,573.75
2018-07-03T09:30:54.099Z,579.38
2018-07-03T09:31:54.119Z,585.00
2018-07-03T09:32:54.153Z,585.00
2018-07-03T09:33:54.177Z,607.50
2018-07-03T09:34:54.205Z,607.50
2018-07-03T09:35:54.236Z,613.13
2018-07-03T09:36:54.284Z,624.38
2018-07-03T09:37:54.298Z,624.38
2018-07-03T09:38:54.321Z,618.75
2018-07-03T09:39:54.350Z,624.38
2018-07-03T09:40:54.379Z,630.00
2018-07-03T09:41:54.399Z,630.00
2018-07-03T09:42:54.431Z,646.88
2018-07-03T09:43:54.454Z,652.50
2018-07-03T09:44:54.484Z,663.75
2018-07-03T09:45:54.516Z,680.63
2018-07-03T09:46:54.539Z,686.25
2018-07-03T09:47:54.568Z,686.25
2018-07-03T09:48:54.649Z,691.88
2018-07-03T09:49:54.623Z,686.25
2018-07-03T09:50:54.650Z,680.63
2018-07-03T09:51:54.681Z,680.63
2018-07-03T09:52:54.705Z,669.38
2018-07-03T09:53:54.737Z,663.75
2018-07-03T09:54:54.811Z,658.13
2018-07-03T09:55:54.792Z,641.25
2018-07-03T09:56:54.823Z,630.00
2018-07-03T09:57:54.849Z,607.50
2018-07-03T09:58:54.878Z,579.38
2018-07-03T09:59:54.908Z,579.38
2018-07-03T10:00:54.933Z,601.88
2018-07-03T10:01:54.962Z,601.88
2018-07-03T10:02:54.988Z,618.75
2018-07-03T10:03:55.019Z,613.13
2018-07-03T10:04:55.048Z,635.63
2018-07-03T10:05:55.081Z,630.00
2018-07-03T10:06:55.103Z,618.75
2018-07-03T10:07:55.136Z,590.63
2018-07-03T10:08:55.162Z,601.88
2018-07-03T10:09:55.193Z,607.50
2018-07-03T10:10:55.215Z,607.50
2018-07-03T10:11:55.246Z,590.63
2018-07-03T10:12:55.292Z,562.50
2018-07-03T10:13:55.301Z,540.00
2018-07-03T10:14:55.329Z,540.00
2018-07-03T10:15:55.353Z,534.38
2018-07-03T10:16:55.387Z,534.38
2018-07-03T10:17:55.411Z,534.38
2018-07-03T10:18:55.456Z,534.38
2018-07-03T10:19:55.466Z,540.00
2018-07-03T10:20:55.503Z,540.00
2018-07-03T10:21:55.527Z,551.25
2018-07-03T10:22:55.551Z,556.88
2018-07-03T10:23:55.583Z,568.13
2018-07-03T10:24:55.606Z,579.38
2018-07-03T10:25:55.640Z,590.63
2018-07-03T10:26:55.668Z,635.63
2018-07-03T10:27:55.688Z,652.50
2018-07-03T10:28:55.721Z,669.38
2018-07-03T10:29:55.746Z,675.00
2018-07-03T10:30:55.783Z,686.25
2018-07-03T10:31:55.803Z,697.50
2018-07-03T10:32:55.836Z,708.75
2018-07-03T10:33:55.873Z,720.00
2018-07-03T10:34:55.896Z,736.88
2018-07-03T10:35:55.918Z,742.50
2018-07-03T10:36:55.946Z,748.13
2018-07-03T10:37:55.975Z,765.00
2018-07-03T10:38:56.001Z,770.63
2018-07-03T10:39:56.035Z,781.88
2018-07-03T10:40:56.057Z,793.13
2018-07-03T10:41:56.087Z,804.38
2018-07-03T10:42:56.118Z,810.00
2018-07-03T10:43:56.143Z,804.38
2018-07-03T10:44:56.170Z,821.25
2018-07-03T10:45:56.197Z,832.50
2018-07-03T10:46:56.242Z,838.13
2018-07-03T10:47:56.255Z,832.50
2018-07-03T10:48:56.300Z,838.13
2018-07-03T10:49:56.315Z,832.50
2018-07-03T10:50:56.341Z,804.38
2018-07-03T10:51:56.367Z,821.25
2018-07-03T10:52:56.400Z,810.00
2018-07-03T10:53:56.429Z,748.13
2018-07-03T10:54:56.456Z,753.75
2018-07-03T10:55:56.486Z,725.63
2018-07-03T10:56:56.512Z,787.50
2018-07-03T10:57:56.543Z,826.88
2018-07-03T10:58:56.572Z,810.00
2018-07-03T10:59:56.603Z,860.63
2018-07-03T11:00:56.624Z,883.13
2018-07-03T11:01:56.663Z,945.00
2018-07-03T11:02:56.689Z,1001.25
2018-07-03T11:03:56.715Z,1046.25
2018-07-03T11:04:56.741Z,1096.88
2018-07-03T11:05:56.777Z,1203.75
2018-07-03T11:06:56.799Z,1411.88
2018-07-03T11:07:56.833Z,1743.75
2018-07-03T11:08:56.858Z,2520.00
2018-07-03T11:09:56.888Z,2981.25
2018-07-03T11:10:56.921Z,2981.25
2018-07-03T11:11:56.945Z,2941.88
2018-07-03T11:12:56.990Z,2868.75
2018-07-03T11:13:57.121Z,2958.75
2018-07-03T11:14:57.032Z,2998.13
2018-07-03T11:15:57.076Z,3093.75
2018-07-03T11:16:57.095Z,3189.38
2018-07-03T11:17:57.139Z,3195.00
2018-07-03T11:18:57.165Z,3234.38
2018-07-03T11:19:57.302Z,3268.13
2018-07-03T11:20:57.231Z,3279.38
2018-07-03T11:21:57.265Z,3273.75
2018-07-03T11:22:57.291Z,3285.00
2018-07-03T11:23:57.328Z,3273.75
2018-07-03T11:24:57.353Z,3290.63
2018-07-03T11:25:57.395Z,3285.00
2018-07-03T11:26:57.432Z,3285.00
2018-07-03T11:27:57.459Z,3318.75
2018-07-03T11:28:57.542Z,3408.75
2018-07-03T11:29:57.529Z,3487.50
2018-07-03T11:30:57.766Z,3459.38
2018-07-03T11:31:57.596Z,3465.00
2018-07-03T11:32:57.632Z,3526.88
2018-07-03T11:33:57.675Z,3526.88
2018-07-03T11:34:57.703Z,3555.00
2018-07-03T11:35:57.738Z,3628.13
2018-07-03T11:36:57.776Z,3701.25
2018-07-03T11:37:57.816Z,3656.25
2018-07-03T11:38:57.849Z,3667.50
2018-07-03T11:40:00.913Z,3600.00
2018-07-03T11:40:57.920Z,3566.25
2018-07-03T11:41:57.973Z,3628.13
2018-07-03T11:42:57.999Z,3622.50
2018-07-03T11:43:59.444Z,3785.63
2018-07-03T11:44:58.066Z,3892.50
2018-07-03T11:46:40.690Z,3796.88
2018-07-03T11:47:40.703Z,3886.88
2018-07-03T11:48:40.733Z,3903.75
2018-07-03T11:49:40.778Z,3892.50
2018-07-03T11:50:40.809Z,4038.75
2018-07-03T11:51:40.851Z,4083.75
2018-07-03T11:52:40.885Z,4083.75
2018-07-03T11:53:40.952Z,4117.50
2018-07-03T11:54:40.957Z,4078.13
2018-07-03T11:55:41.001Z,4123.13
2018-07-03T11:56:41.852Z,4201.88
2018-07-03T11:57:41.081Z,4179.38
2018-07-03T11:58:41.109Z,4106.25
2018-07-03T12:00:23.714Z,4140.00
2018-07-03T12:01:23.799Z,4083.75
2018-07-03T12:02:23.783Z,4145.63
2018-07-03T12:03:23.823Z,4263.75
2018-07-03T12:04:23.862Z,4348.13
2018-07-03T12:05:23.899Z,4325.63
2018-07-03T12:06:23.944Z,4235.63
2018-07-03T12:07:23.977Z,4331.25
2018-07-03T12:08:24.013Z,4460.63
2018-07-03T12:09:24.071Z,4466.25
2018-07-03T12:11:21.688Z,4291.88
2018-07-03T12:12:21.728Z,4235.63
2018-07-03T12:13:21.767Z,4443.75
2018-07-03T12:14:21.803Z,4528.13
2018-07-03T12:15:21.842Z,4522.50
2018-07-03T12:16:21.883Z,4426.88
2018-07-03T12:17:21.923Z,4595.63
2018-07-03T12:18:21.955Z,4668.75
2018-07-03T12:19:22.006Z,4561.88
2018-07-03T12:20:22.040Z,4567.50
2018-07-03T12:21:22.077Z,4561.88
2018-07-03T12:22:22.118Z,4590.00
2018-07-03T12:23:22.162Z,4674.38
2018-07-03T12:24:22.193Z,4719.38
2018-07-03T12:25:22.238Z,4646.25
2018-07-03T12:26:22.274Z,4606.88
2018-07-03T12:27:22.311Z,4528.13
2018-07-03T12:28:22.351Z,4471.88
2018-07-03T12:29:22.389Z,4455.00
2018-07-03T12:30:22.436Z,4533.75
2018-07-03T12:31:22.469Z,4691.25
2018-07-03T12:32:22.513Z,4685.63
2018-07-03T12:33:22.551Z,4696.88
2018-07-03T12:34:22.592Z,4792.50
2018-07-03T12:35:22.625Z,4876.88
2018-07-03T12:36:22.674Z,4803.75
2018-07-03T12:37:22.715Z,4770.00
2018-07-03T12:38:22.753Z,4848.75
2018-07-03T12:39:22.792Z,4983.75
2018-07-03T12:40:22.832Z,4950.00
2018-07-03T12:41:22.872Z,4955.63
2018-07-03T12:42:22.914Z,4995.00
2018-07-03T12:43:22.951Z,4950.00
2018-07-03T12:44:22.985Z,4938.75
2018-07-03T12:45:23.031Z,5023.13
2018-07-03T12:46:23.071Z,5090.63
2018-07-03T12:47:23.108Z,5000.63